< < Back
Terminal Aerodrome Forecast


Current Version              Previous Versions:   1  2  3  4  5  6  7  8  9  

Terminal Aerodrome Forecast

576
FTUS42 KTAE 281120
TAFDHN
TAF
KDHN 281120Z 2812/2912 10005KT P6SM BKN200
     FM281500 09005KT P6SM BKN060 BKN120
     FM290100 VRB03KT P6SM FEW060 BKN120=

Latest METAR

815
SAUS70 KWBC 291056
MTRDHN
METAR KDHN 291053Z AUTO 02003KT 10SM CLR 21/18 A3011 RMK AO2 SLP192
T02060183


USA.gov is the U.S. government's official web portal to all federal, state and local government web resources and services.